Time;durP1;ratioP1;P1;durP2;ratioP2;P2;SDS_P1;SDS_P2;PMS_P1;PMS_P2;Temp;Humidity;BMP_temperature;BMP_pressure;BME280_temperature;BME280_humidity;BME280_pressure;Samples;Min_cycle;Max_cycle;Signal;HPM_P1;HPM_P2
2022/09/28 00:01:17;;;;;;;8.02;2.67;;;;;;;18.62;56.76;100785.66;6153359;23;20028;-72
2022/09/28 00:03:45;;;;;;;10.85;2.45;;;;;;;18.64;56.63;100781.34;6155382;23;20021;-71
2022/09/28 00:06:14;;;;;;;13.27;2.88;;;;;;;18.67;57.02;100768.56;6155608;23;20033;-71
2022/09/28 00:08:41;;;;;;;8.02;2.30;;;;;;;18.62;56.84;100771.53;6155248;23;20286;-72
2022/09/28 00:11:12;;;;;;;6.00;2.50;;;;;;;18.58;56.62;100757.22;6154561;23;20468;-73
2022/09/28 00:13:41;;;;;;;8.20;2.70;;;;;;;18.36;56.60;100729.91;6155456;23;20028;-75
2022/09/28 00:16:14;;;;;;;7.30;2.88;;;;;;;18.50;56.52;100754.38;6156763;23;20025;-76
2022/09/28 00:18:42;;;;;;;8.48;2.30;;;;;;;18.57;56.57;100766.03;6155861;23;20021;-77
2022/09/28 00:21:16;;;;;;;12.32;2.65;;;;;;;18.52;56.93;100769.00;6154629;23;20021;-75
2022/09/28 00:26:31;;;;;;;10.75;2.67;;;;;;;18.52;57.25;100757.69;6173532;23;20031;-76
2022/09/28 00:29:00;;;;;;;8.73;2.75;;;;;;;18.46;57.01;100734.38;6171571;23;20113;-75
2022/09/28 00:31:33;;;;;;;6.00;2.17;;;;;;;18.42;57.08;100717.25;6172347;23;20017;-74
2022/09/28 00:34:01;;;;;;;9.07;3.20;;;;;;;18.50;56.80;100729.75;6159899;23;20021;-74
2022/09/28 00:36:30;;;;;;;4.47;2.00;;;;;;;18.51;56.77;100742.72;6158741;23;20025;-74
2022/09/28 00:38:58;;;;;;;6.35;2.17;;;;;;;18.50;56.85;100743.91;6157020;23;20021;-74
2022/09/28 00:41:26;;;;;;;9.00;2.25;;;;;;;18.45;57.00;100732.72;6155668;23;20017;-73
2022/09/28 00:44:25;;;;;;;6.47;2.47;;;;;;;18.42;56.69;100744.69;6154447;23;20021;-73
2022/09/28 00:46:55;;;;;;;6.97;2.50;;;;;;;18.43;57.08;100746.38;6153709;23;20097;-73
2022/09/28 00:49:35;;;;;;;8.23;1.95;;;;;;;18.31;57.29;100730.03;6153343;23;20032;-74
2022/09/28 00:52:06;;;;;;;11.85;2.58;;;;;;;18.38;57.23;100721.06;6153748;23;20077;-74
2022/09/28 00:54:34;;;;;;;9.18;2.22;;;;;;;18.49;57.08;100739.38;6155229;23;20029;-73
2022/09/28 00:57:02;;;;;;;6.22;2.38;;;;;;;18.37;56.90;100719.41;6152329;23;20096;-74
2022/09/28 00:59:32;;;;;;;4.63;2.20;;;;;;;18.42;56.62;100722.06;6153856;23;20025;-74
2022/09/28 01:02:00;;;;;;;7.30;2.53;;;;;;;18.50;56.73;100751.56;6155265;23;20052;-74
2022/09/28 01:04:28;;;;;;;4.50;2.10;;;;;;;18.27;56.76;100708.41;6153681;23;20316;-73
2022/09/28 01:06:57;;;;;;;9.38;2.17;;;;;;;18.45;57.00;100750.53;6153874;23;20017;-74
2022/09/28 01:09:26;;;;;;;6.68;2.10;;;;;;;18.39;56.92;100734.03;6153927;23;20342;-74
2022/09/28 01:11:54;;;;;;;12.15;2.58;;;;;;;18.21;56.72;100719.84;6152634;23;20025;-74
2022/09/28 01:14:24;;;;;;;6.15;2.38;;;;;;;18.36;56.96;100734.69;6177685;23;20338;-73
2022/09/28 01:17:12;;;;;;;5.43;2.00;;;;;;;18.35;56.85;100738.69;6154707;23;20026;-74
2022/09/28 01:20:10;;;;;;;9.20;2.75;;;;;;;18.23;56.69;100743.00;6153036;23;20021;-73
2022/09/28 01:22:51;;;;;;;9.23;2.17;;;;;;;18.23;57.20;100740.16;6154159;23;20021;-73
2022/09/28 01:25:33;;;;;;;9.18;2.83;;;;;;;18.22;56.68;100747.00;6152189;23;20473;-74
2022/09/28 01:28:08;;;;;;;9.00;2.10;;;;;;;18.08;57.00;100723.63;6153810;23;20165;-76
2022/09/28 01:30:45;;;;;;;9.15;2.20;;;;;;;18.24;57.01;100744.66;6153803;23;20025;-75
2022/09/28 01:33:21;;;;;;;7.57;2.47;;;;;;;18.27;57.18;100748.00;6154536;23;20022;-75
2022/09/28 01:36:21;;;;;;;7.03;2.03;;;;;;;18.20;56.83;100742.81;6154331;23;20445;-75
2022/09/28 01:39:04;;;;;;;9.02;3.03;;;;;;;18.28;57.15;100746.81;6142839;23;20021;-72
2022/09/28 01:41:35;;;;;;;10.40;2.53;;;;;;;18.27;56.74;100754.47;6152766;23;20025;-73
2022/09/28 01:44:07;;;;;;;11.85;3.13;;;;;;;18.25;57.02;100745.47;6153752;23;20025;-73
2022/09/28 01:46:43;;;;;;;5.28;1.98;;;;;;;18.14;57.08;100739.28;6154741;23;20296;-74
2022/09/28 01:49:18;;;;;;;11.35;2.83;;;;;;;18.16;57.33;100739.81;6153632;23;20033;-75
2022/09/28 01:51:58;;;;;;;5.07;2.40;;;;;;;18.05;57.05;100735.63;6154012;23;20046;-75
2022/09/28 01:54:32;;;;;;;12.48;3.67;;;;;;;17.93;57.25;100721.25;6152759;23;20527;-74
2022/09/28 01:57:09;;;;;;;9.63;2.45;;;;;;;17.98;57.40;100738.06;6150080;23;20357;-75
2022/09/28 01:59:40;;;;;;;6.88;2.58;;;;;;;18.00;57.43;100745.06;6153818;23;20361;-75
2022/09/28 02:02:18;;;;;;;5.93;2.30;;;;;;;17.94;57.59;100749.19;6154146;23;20478;-76
2022/09/28 02:04:52;;;;;;;8.50;3.38;;;;;;;17.88;58.01;100719.44;6152708;23;20025;-76
2022/09/28 02:07:25;;;;;;;7.07;2.55;;;;;;;17.97;57.55;100734.41;6176797;23;20025;-77
2022/09/28 02:10:01;;;;;;;11.82;2.88;;;;;;;18.02;57.49;100741.94;6152815;23;20032;-76
2022/09/28 02:12:37;;;;;;;5.68;2.45;;;;;;;18.07;57.71;100750.25;6151287;23;20022;-77
2022/09/28 02:15:22;;;;;;;9.43;2.75;;;;;;;18.05;57.69;100744.09;6151425;23;20027;-76
2022/09/28 02:17:49;;;;;;;7.28;2.08;;;;;;;17.99;57.76;100736.91;6149772;23;20022;-78
2022/09/28 02:20:17;;;;;;;7.93;2.97;;;;;;;17.96;57.50;100732.75;6153695;23;20026;-77
2022/09/28 02:22:50;;;;;;;7.47;3.08;;;;;;;18.07;57.47;100741.75;6154486;23;20047;-76
2022/09/28 02:25:46;;;;;;;8.55;2.67;;;;;;;17.73;57.84;100705.69;6152852;23;20021;-75
2022/09/28 02:28:13;;;;;;;11.57;2.55;;;;;;;18.06;57.63;100748.59;6151666;23;20027;-77
2022/09/28 02:30:41;;;;;;;12.13;3.28;;;;;;;17.98;57.89;100726.75;6175857;23;20029;-77
2022/09/28 02:33:15;;;;;;;8.52;2.97;;;;;;;18.08;57.84;100746.25;6154072;23;20389;-77
2022/09/28 02:35:42;;;;;;;8.50;3.80;;;;;;;18.00;58.16;100727.28;6151971;23;20025;-77
2022/09/28 02:38:10;;;;;;;9.43;3.10;;;;;;;17.99;57.94;100732.09;6177626;23;20047;-78
2022/09/28 02:40:38;;;;;;;10.93;3.20;;;;;;;18.06;58.15;100736.44;6152304;23;20492;-79
2022/09/28 02:43:34;;;;;;;9.70;4.25;;;;;;;18.05;57.99;100732.78;6152698;23;20639;-73
2022/09/28 02:46:14;;;;;;;9.50;2.88;;;;;;;17.95;58.02;100730.25;6129131;23;20477;-74
2022/09/28 02:48:53;;;;;;;10.55;2.60;;;;;;;17.91;58.01;100735.69;6152598;23;20494;-73
2022/09/28 02:52:01;;;;;;;8.13;3.00;;;;;;;17.86;58.27;100729.38;6152506;23;20026;-73
2022/09/28 02:54:59;;;;;;;8.73;2.75;;;;;;;17.80;58.53;100730.69;6151973;23;20032;-73
2022/09/28 02:58:13;;;;;;;8.95;2.78;;;;;;;17.75;58.92;100726.81;6152703;23;20345;-72
2022/09/28 03:00:48;;;;;;;6.60;5.82;;;;;;;17.47;58.80;100677.31;6107742;23;20026;-72
2022/09/28 03:03:15;;;;;;;6.90;2.10;;;;;;;17.87;59.18;100739.50;6176671;23;20022;-72
2022/09/28 03:06:31;;;;;;;11.60;2.72;;;;;;;17.76;59.06;100730.50;6153220;23;20021;-71
2022/09/28 03:09:09;;;;;;;6.70;2.40;;;;;;;17.88;59.59;100724.22;6092459;23;20046;-71
2022/09/28 03:11:48;;;;;;;6.18;2.13;;;;;;;17.89;59.55;100720.25;6152494;23;20017;-72
2022/09/28 03:14:15;;;;;;;9.30;3.05;;;;;;;17.74;59.78;100682.78;6151472;23;20033;-73
2022/09/28 03:16:43;;;;;;;8.57;1.77;;;;;;;17.96;60.19;100709.31;6153222;23;20022;-73
2022/09/28 03:19:12;;;;;;;8.85;1.98;;;;;;;17.85;60.30;100679.69;6153002;23;20033;-72
2022/09/28 03:21:39;;;;;;;4.68;1.75;;;;;;;17.93;60.19;100693.84;6154110;23;20025;-73
2022/09/28 03:24:06;;;;;;;6.70;1.95;;;;;;;17.92;60.82;100668.75;6153928;23;20128;-73
2022/09/28 03:26:33;;;;;;;3.35;1.10;;;;;;;18.20;60.56;100701.25;6177731;23;20029;-73
2022/09/28 03:28:59;;;;;;;5.45;1.50;;;;;;;18.22;60.71;100684.81;6155933;23;20357;-73
2022/09/28 03:31:26;;;;;;;10.20;1.90;;;;;;;18.33;60.66;100692.97;6156413;23;20337;-76
2022/09/28 03:33:53;;;;;;;8.85;2.05;;;;;;;18.09;60.78;100642.53;6156308;23;20032;-74
2022/09/28 03:36:20;;;;;;;3.67;1.55;;;;;;;18.47;61.07;100702.97;6154520;23;20033;-74
2022/09/28 03:38:47;;;;;;;4.10;1.50;;;;;;;18.50;60.69;100698.66;6155920;23;20021;-75
2022/09/28 03:41:14;;;;;;;3.58;1.55;;;;;;;18.47;60.80;100686.00;6179326;23;20021;-75
2022/09/28 03:43:41;;;;;;;3.63;1.67;;;;;;;18.59;60.59;100712.78;6155037;23;20029;-75
2022/09/28 03:46:07;;;;;;;5.30;1.85;;;;;;;18.52;60.81;100692.66;6155344;23;20029;-76
2022/09/28 03:48:35;;;;;;;5.07;1.67;;;;;;;18.64;60.63;100696.50;6155833;23;20029;-73
2022/09/28 03:51:05;;;;;;;3.25;1.50;;;;;;;18.46;60.80;100680.66;6153586;23;20018;-75
2022/09/28 03:53:32;;;;;;;6.85;2.17;;;;;;;18.55;60.55;100698.47;6154431;23;20028;-76
2022/09/28 03:56:04;;;;;;;6.70;2.22;;;;;;;18.67;60.35;100711.97;6154530;23;20033;-73
2022/09/28 03:58:31;;;;;;;6.93;1.80;;;;;;;18.49;60.56;100682.81;6155385;23;20346;-72
2022/09/28 04:01:04;;;;;;;3.42;1.70;;;;;;;18.68;60.51;100707.97;6155235;23;20017;-74
2022/09/28 04:03:31;;;;;;;3.60;1.92;;;;;;;18.60;60.63;100689.84;6155435;23;20084;-73
2022/09/28 04:05:59;;;;;;;5.50;1.92;;;;;;;18.60;60.66;100704.00;6153673;23;20028;-73
2022/09/28 04:08:26;;;;;;;4.25;1.88;;;;;;;18.70;60.78;100712.16;6154426;23;20117;-71
2022/09/28 04:11:00;;;;;;;7.68;2.50;;;;;;;18.55;60.83;100692.00;6153582;23;20022;-73
2022/09/28 04:13:28;;;;;;;4.70;1.88;;;;;;;18.64;60.72;100707.81;6153584;23;20061;-73
2022/09/28 04:15:58;;;;;;;4.20;2.83;;;;;;;18.58;60.66;100700.66;6153522;23;20032;-74
2022/09/28 04:18:25;;;;;;;5.22;2.13;;;;;;;18.70;60.78;100712.16;6153492;23;20022;-74
2022/09/28 04:20:58;;;;;;;3.28;1.70;;;;;;;18.76;60.87;100709.19;6155617;23;20752;-74
2022/09/28 04:23:27;;;;;;;8.77;2.03;;;;;;;18.72;61.01;100709.00;6155811;23;20022;-74
2022/09/28 04:25:53;;;;;;;5.05;2.13;;;;;;;18.73;60.80;100729.63;6154661;23;20048;-75
2022/09/28 04:31:12;;;;;;;5.75;2.13;;;;;;;18.68;60.91;100713.63;6154059;23;20018;-74
2022/09/28 04:33:39;;;;;;;6.90;2.50;;;;;;;18.82;60.75;100734.16;6178718;23;20084;-74
2022/09/28 04:36:08;;;;;;;6.07;1.85;;;;;;;18.77;60.59;100728.66;6155768;23;20026;-73
2022/09/28 04:38:34;;;;;;;9.23;2.22;;;;;;;18.83;60.60;100732.16;6153706;23;20349;-73
2022/09/28 04:41:18;;;;;;;10.38;2.15;;;;;;;18.73;60.98;100701.34;6152509;23;20169;-73
2022/09/28 04:43:46;;;;;;;8.63;2.05;;;;;;;18.72;61.00;100702.53;6155125;23;20026;-73
2022/09/28 04:46:13;;;;;;;10.55;3.53;;;;;;;18.90;61.12;100724.81;6154335;23;20028;-73
2022/09/28 04:48:40;;;;;;;8.65;2.08;;;;;;;18.93;60.40;100726.16;6178740;23;20029;-73
2022/09/28 04:51:07;;;;;;;9.85;2.20;;;;;;;18.79;61.19;100705.69;6155829;23;20021;-74
2022/09/28 04:53:34;;;;;;;5.35;2.40;;;;;;;18.95;60.88;100721.00;6154227;23;20021;-74
2022/09/28 04:56:02;;;;;;;7.95;2.00;;;;;;;19.00;60.58;100726.50;6156497;23;20029;-73
2022/09/28 04:58:29;;;;;;;6.43;2.60;;;;;;;18.63;60.68;100660.03;6162053;23;20028;-74
2022/09/28 05:00:59;;;;;;;12.23;2.30;;;;;;;18.86;60.84;100703.19;6161346;23;20018;-73
2022/09/28 05:03:26;;;;;;;7.57;2.05;;;;;;;18.85;60.74;100704.38;6167034;23;20044;-73
2022/09/28 05:05:54;;;;;;;6.10;2.53;;;;;;;18.96;61.10;100722.66;6169423;23;20026;-73
2022/09/28 05:08:20;;;;;;;4.90;2.08;;;;;;;18.89;61.00;100719.50;6159242;23;20025;-78
2022/09/28 05:10:47;;;;;;;10.52;2.72;;;;;;;18.85;61.14;100708.03;6157309;23;20453;-74
2022/09/28 05:13:16;;;;;;;6.88;1.92;;;;;;;18.90;61.14;100721.16;6152510;23;20029;-76
2022/09/28 05:15:42;;;;;;;10.68;2.72;;;;;;;18.85;60.86;100718.50;6155522;23;20021;-75
2022/09/28 05:18:09;;;;;;;8.05;1.92;;;;;;;18.96;61.11;100733.16;6155200;23;20021;-74
2022/09/28 05:20:40;;;;;;;9.13;2.33;;;;;;;18.79;60.83;100697.19;6153650;23;20021;-74
2022/09/28 05:23:09;;;;;;;6.57;2.00;;;;;;;18.82;60.88;100713.50;6154535;23;20029;-76
2022/09/28 05:25:36;;;;;;;8.52;1.90;;;;;;;18.88;61.12;100723.50;6154969;23;20057;-76
2022/09/28 05:28:03;;;;;;;11.32;2.03;;;;;;;18.81;60.84;100724.00;6155570;23;20086;-74
2022/09/28 05:30:29;;;;;;;9.38;1.58;;;;;;;18.81;60.95;100726.00;6154457;23;20021;-75
2022/09/28 05:32:56;;;;;;;7.80;2.10;;;;;;;18.83;61.30;100721.66;6152882;23;20361;-73
2022/09/28 05:35:23;;;;;;;9.90;1.88;;;;;;;18.91;61.47;100701.03;6155501;23;20044;-73
2022/09/28 05:37:50;;;;;;;3.65;1.73;;;;;;;19.20;61.29;100726.97;6152928;23;20352;-73
2022/09/28 05:40:18;;;;;;;11.65;1.92;;;;;;;19.08;61.10;100673.91;6175235;23;20033;-74
2022/09/28 05:42:45;;;;;;;10.82;2.00;;;;;;;19.64;60.55;100735.09;6153470;23;20017;-74
2022/09/28 05:45:12;;;;;;;6.70;1.83;;;;;;;19.65;60.17;100719.75;6153134;23;20025;-74
2022/09/28 05:47:40;;;;;;;10.50;1.92;;;;;;;19.68;60.40;100740.09;6152968;23;20026;-75
2022/09/28 05:50:10;;;;;;;5.75;1.83;;;;;;;19.61;60.37;100732.91;6149532;23;20499;-75
2022/09/28 05:52:37;;;;;;;7.72;2.40;;;;;;;19.47;60.68;100740.75;6174952;23;20021;-77
2022/09/28 05:55:05;;;;;;;9.73;1.95;;;;;;;19.45;60.59;100733.78;6154488;23;20029;-77
2022/09/28 05:57:32;;;;;;;6.15;2.25;;;;;;;19.39;60.84;100733.13;6152617;23;20409;-74
2022/09/28 05:59:59;;;;;;;8.57;2.97;;;;;;;19.56;60.83;100743.59;6151297;23;20025;-74
2022/09/28 06:02:26;;;;;;;6.57;1.48;;;;;;;19.55;60.44;100742.75;6151471;23;20029;-72
2022/09/28 06:04:54;;;;;;;7.40;1.55;;;;;;;19.53;60.02;100739.44;6153605;23;20528;-76
2022/09/28 06:07:22;;;;;;;7.35;1.65;;;;;;;19.40;59.94;100723.47;6153227;23;20461;-73
2022/09/28 06:09:49;;;;;;;7.20;2.00;;;;;;;19.36;59.75;100720.47;6150707;23;20025;-76
2022/09/28 06:12:16;;;;;;;8.48;1.63;;;;;;;19.32;59.11;100707.31;6149838;23;20483;-74
2022/09/28 06:14:43;;;;;;;18.52;1.48;;;;;;;19.32;59.06;100715.81;6152101;23;20438;-75
2022/09/28 06:17:10;;;;;;;8.48;1.75;;;;;;;19.18;58.98;100721.66;6152122;23;20092;-76
2022/09/28 06:19:38;;;;;;;7.53;1.92;;;;;;;19.17;59.02;100725.66;6151335;23;20029;-75
2022/09/28 06:22:05;;;;;;;8.45;2.25;;;;;;;19.06;58.87;100724.34;6150994;23;20457;-75
2022/09/28 06:24:31;;;;;;;4.00;1.58;;;;;;;19.00;58.73;100728.50;6148009;23;20499;-76
2022/09/28 06:26:58;;;;;;;4.18;1.25;;;;;;;18.93;59.00;100723.31;6151359;23;20026;-74
2022/09/28 06:29:25;;;;;;;5.13;1.15;;;;;;;18.88;58.83;100717.84;6150430;23;20124;-74
2022/09/28 06:31:52;;;;;;;4.20;1.42;;;;;;;18.76;59.00;100715.66;6153855;23;20022;-75
2022/09/28 06:34:20;;;;;;;5.25;2.00;;;;;;;18.81;58.94;100723.19;6150779;23;20025;-74
2022/09/28 06:36:47;;;;;;;8.07;1.92;;;;;;;18.75;58.92;100727.31;6152679;23;20033;-75
2022/09/28 06:39:14;;;;;;;5.65;1.73;;;;;;;18.78;58.96;100733.16;6152810;23;20026;-74
2022/09/28 06:41:41;;;;;;;4.95;2.13;;;;;;;18.62;59.17;100710.13;6155302;23;20030;-74
2022/09/28 06:44:08;;;;;;;7.28;2.33;;;;;;;18.67;58.96;100732.63;6174740;23;20494;-75
2022/09/28 06:46:36;;;;;;;5.13;1.65;;;;;;;18.79;59.34;100739.63;6148074;23;20060;-74
2022/09/28 06:49:07;;;;;;;4.78;1.52;;;;;;;18.73;59.03;100721.16;6150457;23;20032;-75
2022/09/28 06:51:35;;;;;;;7.20;1.60;;;;;;;18.78;59.04;100729.50;6153856;23;20069;-74
2022/09/28 06:54:02;;;;;;;3.72;1.33;;;;;;;18.76;58.87;100728.97;6154135;23;20043;-74
2022/09/28 06:56:29;;;;;;;7.70;1.50;;;;;;;18.64;59.30;100724.78;6152767;23;20021;-75
2022/09/28 06:58:58;;;;;;;8.55;1.90;;;;;;;18.76;58.96;100738.28;6154131;23;20075;-75
2022/09/28 07:01:25;;;;;;;8.45;2.05;;;;;;;18.78;58.93;100735.16;6155975;23;20017;-75
2022/09/28 07:03:52;;;;;;;8.25;1.70;;;;;;;18.84;59.04;100728.16;6156377;23;20355;-75
2022/09/28 07:06:23;;;;;;;4.72;1.67;;;;;;;18.79;58.70;100734.81;6156733;23;20180;-77
2022/09/28 07:08:49;;;;;;;7.05;1.45;;;;;;;18.79;58.70;100729.16;6157675;23;20467;-75
2022/09/28 07:11:40;;;;;;;8.65;1.55;;;;;;;18.37;58.75;100660.03;6156659;23;20018;-75
2022/09/28 07:14:08;;;;;;;4.93;1.45;;;;;;;18.89;58.59;100742.97;6155738;23;20025;-74
2022/09/28 07:16:51;;;;;;;4.50;2.03;;;;;;;19.23;58.67;100758.28;6154604;23;20479;-75
2022/09/28 07:19:37;;;;;;;5.25;1.73;;;;;;;19.65;57.99;100730.25;6154328;23;20100;-74
2022/09/28 07:22:04;;;;;;;4.57;1.30;;;;;;;19.98;57.51;100741.81;6155502;23;20025;-75
2022/09/28 07:24:31;;;;;;;10.05;2.10;;;;;;;20.17;57.28;100743.38;6156413;23;20581;-76
2022/09/28 07:26:58;;;;;;;3.58;1.52;;;;;;;20.43;56.83;100743.25;6156826;23;20025;-75
2022/09/28 07:29:25;;;;;;;5.93;1.35;;;;;;;20.64;56.27;100740.50;6157600;23;20025;-75
2022/09/28 07:31:53;;;;;;;8.27;1.83;;;;;;;20.78;56.10;100704.16;6155627;23;20021;-75
2022/09/28 07:34:22;;;;;;;6.40;1.92;;;;;;;21.01;55.47;100725.34;6156681;23;20025;-76
2022/09/28 07:36:49;;;;;;;8.50;1.75;;;;;;;21.09;55.27;100720.75;6154923;23;20096;-75
2022/09/28 07:39:15;;;;;;;9.15;1.95;;;;;;;21.27;55.07;100727.13;6154136;23;20044;-76
2022/09/28 07:41:43;;;;;;;11.93;2.03;;;;;;;21.44;54.68;100727.00;6155040;23;20469;-75
2022/09/28 07:44:10;;;;;;;7.45;2.00;;;;;;;21.23;54.72;100711.94;6156563;23;20025;-76
2022/09/28 07:46:37;;;;;;;5.50;1.75;;;;;;;21.42;54.08;100740.69;6156397;23;20029;-76
2022/09/28 07:49:04;;;;;;;4.97;2.00;;;;;;;21.37;54.41;100728.72;6155465;23;20025;-76
2022/09/28 07:51:37;;;;;;;10.35;2.78;;;;;;;21.49;54.19;100743.81;6154300;23;20388;-76
2022/09/28 07:54:06;;;;;;;8.15;2.63;;;;;;;21.46;54.01;100735.16;6155532;23;20116;-76
2022/09/28 07:56:33;;;;;;;8.20;2.08;;;;;;;21.58;53.87;100742.91;6155309;23;20486;-74
2022/09/28 07:59:00;;;;;;;5.53;1.88;;;;;;;21.69;53.55;100762.00;6156647;23;20022;-75
2022/09/28 08:01:29;;;;;;;4.95;1.85;;;;;;;21.68;53.22;100753.81;6153358;23;20029;-75
2022/09/28 08:03:56;;;;;;;5.75;1.52;;;;;;;21.57;53.60;100729.84;6152151;23;20072;-75
2022/09/28 08:06:23;;;;;;;4.93;1.48;;;;;;;21.82;53.44;100754.31;6154468;23;20025;-74
2022/09/28 08:08:51;;;;;;;7.43;1.63;;;;;;;21.87;52.94;100756.09;6155868;23;20123;-75
2022/09/28 08:11:18;;;;;;;4.05;1.25;;;;;;;21.90;53.04;100750.53;6152338;23;20029;-75
2022/09/28 08:13:46;;;;;;;3.13;1.27;;;;;;;22.04;52.68;100761.59;6153072;23;20460;-75
2022/09/28 08:16:22;;;;;;;5.30;1.50;;;;;;;22.12;52.64;100748.44;6152232;23;20037;-74
2022/09/28 08:18:49;;;;;;;5.28;1.48;;;;;;;22.13;52.55;100730.19;6152337;23;20088;-76
2022/09/28 08:24:01;;;;;;;4.40;1.27;;;;;;;22.26;51.97;100740.44;6153172;23;20025;-76
2022/09/28 08:26:28;;;;;;;5.55;1.40;;;;;;;22.21;51.85;100732.13;6126320;23;20022;-74
2022/09/28 08:28:55;;;;;;;9.70;1.50;;;;;;;22.47;51.62;100746.81;6154724;23;20029;-75
2022/09/28 08:31:22;;;;;;;7.65;1.90;;;;;;;22.55;50.90;100738.50;6151317;23;20025;-75
2022/09/28 08:33:52;;;;;;;5.63;1.20;;;;;;;22.40;51.01;100720.97;6154661;23;20032;-75
2022/09/28 08:36:19;;;;;;;3.42;1.38;;;;;;;22.62;50.69;100741.59;6155020;23;20026;-75
2022/09/28 08:38:46;;;;;;;4.55;1.40;;;;;;;22.74;50.44;100757.84;6151941;23;20022;-76
2022/09/28 08:41:52;;;;;;;6.05;1.85;;;;;;;22.65;50.55;100746.56;6153185;23;20026;-75
2022/09/28 08:44:25;;;;;;;6.90;1.70;;;;;;;22.57;50.49;100739.81;6151852;23;20029;-75
2022/09/28 08:47:00;;;;;;;7.70;1.92;;;;;;;22.66;50.46;100736.84;6153091;23;20025;-76
2022/09/28 08:49:49;;;;;;;4.70;1.63;;;;;;;22.74;50.85;100733.03;6152169;23;20045;-75
2022/09/28 08:52:24;;;;;;;4.85;1.42;;;;;;;22.91;49.83;100727.06;6152662;23;20341;-75
2022/09/28 08:55:01;;;;;;;5.05;1.80;;;;;;;23.02;49.79;100700.97;6152221;23;20026;-76
2022/09/28 08:57:35;;;;;;;6.15;1.40;;;;;;;23.26;49.40;100698.00;6150286;23;20550;-76
2022/09/28 09:00:03;;;;;;;9.20;2.58;;;;;;;23.80;49.03;100742.28;6153523;23;20030;-76
2022/09/28 09:02:38;;;;;;;7.90;2.67;;;;;;;24.25;48.16;100730.44;6153755;23;20041;-75
2022/09/28 09:05:13;;;;;;;3.27;1.93;;;;;;;24.80;47.16;100719.94;6153175;23;20026;-75
2022/09/28 09:07:53;;;;;;;3.58;1.83;;;;;;;25.43;46.79;100723.75;6150566;23;20104;-76
2022/09/28 09:10:38;;;;;;;;;;;;;;;25.96;47.14;100719.09;6152813;23;20025;-76
2022/09/28 09:13:19;;;;;;;6.75;2.92;;;;;;;26.60;45.08;100667.81;6151666;23;19920;-75
2022/09/28 09:15:54;;;;;;;6.30;1.73;;;;;;;27.57;43.75;100721.47;6152453;23;20037;-77
2022/09/28 09:18:41;;;;;;;7.35;2.10;;;;;;;27.90;43.28;100714.06;6149907;23;20034;-76
2022/09/28 09:21:47;;;;;;;5.13;1.45;;;;;;;27.45;43.56;100695.91;6152786;23;20018;-76
2022/09/28 09:24:17;;;;;;;8.70;2.58;;;;;;;27.16;43.12;100729.16;6149807;23;20021;-76
2022/09/28 09:26:44;;;;;;;7.57;2.20;;;;;;;26.82;43.25;100713.94;6151561;23;20103;-76
2022/09/28 09:29:45;;;;;;;3.95;2.00;;;;;;;26.51;43.49;100720.84;6150622;23;20203;-76
2022/09/28 09:32:29;;;;;;;7.60;2.08;;;;;;;26.29;43.31;100725.34;6170249;23;20036;-76
2022/09/28 09:35:18;;;;;;;3.88;2.05;;;;;;;26.26;43.30;100737.56;6174747;23;20022;-76
2022/09/28 09:38:18;;;;;;;11.90;2.72;;;;;;;26.30;42.87;100744.19;6175225;23;20053;-76
2022/09/28 09:41:04;;;;;;;6.53;1.73;;;;;;;26.05;43.33;100738.00;6166834;23;20045;-76
2022/09/28 09:43:47;;;;;;;4.30;1.83;;;;;;;25.81;43.43;100739.22;6155405;23;20026;-75
2022/09/28 09:46:38;;;;;;;8.20;2.20;;;;;;;25.34;43.47;100721.13;6153619;23;20028;-77
2022/09/28 09:49:19;;;;;;;5.95;1.85;;;;;;;25.03;44.12;100725.75;6156109;23;20128;-76
2022/09/28 09:52:00;;;;;;;3.50;1.38;;;;;;;24.85;44.15;100718.00;6153058;23;20037;-76
2022/09/28 09:54:52;;;;;;;6.60;1.95;;;;;;;24.75;44.76;100723.09;6154218;23;20026;-77
2022/09/28 09:57:25;;;;;;;6.13;1.70;;;;;;;24.85;44.59;100721.66;6151284;23;20476;-76
2022/09/28 09:59:54;;;;;;;5.40;1.95;;;;;;;24.83;44.49;100719.19;6151272;23;20045;-77
2022/09/28 10:02:25;;;;;;;6.93;2.10;;;;;;;24.77;44.89;100732.09;6154280;23;20022;-77
2022/09/28 10:04:56;;;;;;;6.43;2.42;;;;;;;24.65;44.95;100725.69;6152209;23;20357;-76
2022/09/28 10:07:56;;;;;;;8.77;2.22;;;;;;;24.50;45.26;100727.38;6152947;23;20032;-76
2022/09/28 10:10:32;;;;;;;4.68;1.67;;;;;;;24.41;45.15;100741.88;6142884;23;20022;-76
2022/09/28 10:12:59;;;;;;;10.38;2.58;;;;;;;24.10;45.06;100728.41;6151030;23;20025;-75
2022/09/28 10:15:31;;;;;;;6.05;1.60;;;;;;;24.02;45.60;100729.41;6151956;23;20033;-78
2022/09/28 10:18:05;;;;;;;7.03;1.80;;;;;;;23.88;45.82;100732.72;6151276;23;20028;-76
2022/09/28 10:20:41;;;;;;;8.00;3.08;;;;;;;23.74;46.57;100741.72;6152722;23;20421;-76
2022/09/28 10:23:21;;;;;;;8.10;3.20;;;;;;;23.86;46.14;100718.84;6152365;23;20021;-77
2022/09/28 10:25:53;;;;;;;4.88;2.10;;;;;;;24.26;45.95;100734.09;6151398;23;20465;-76
2022/09/28 10:28:34;;;;;;;6.88;2.25;;;;;;;24.29;45.84;100717.06;6151154;23;20021;-77
2022/09/28 10:31:34;;;;;;;7.55;2.92;;;;;;;24.59;45.45;100742.31;6150820;23;20025;-76
2022/09/28 10:34:02;;;;;;;6.75;1.60;;;;;;;24.47;46.07;100730.97;6152824;23;20092;-77
2022/09/28 10:36:37;;;;;;;7.43;2.53;;;;;;;24.46;46.65;100738.72;6149888;23;20037;-75
2022/09/28 10:39:05;;;;;;;17.75;9.52;;;;;;;24.30;47.91;100723.59;6151497;23;20035;-77
2022/09/28 10:41:31;;;;;;;22.85;7.35;;;;;;;24.55;47.51;100752.81;6152382;23;20022;-76
2022/09/28 10:44:05;;;;;;;12.20;3.90;;;;;;;24.50;47.05;100733.09;6152941;23;20018;-76
2022/09/28 10:46:34;;;;;;;21.83;7.35;;;;;;;24.34;48.13;100736.78;6154820;23;20029;-77
2022/09/28 10:49:13;;;;;;;20.63;6.10;;;;;;;24.05;48.33;100700.97;6151992;23;20088;-75
2022/09/28 10:51:46;;;;;;;22.15;7.57;;;;;;;24.35;49.75;100731.91;6150454;23;20121;-76
2022/09/28 10:54:16;;;;;;;17.77;6.00;;;;;;;24.59;49.23;100730.88;6149920;23;20021;-75
2022/09/28 10:56:44;;;;;;;22.63;7.75;;;;;;;24.62;49.92;100701.59;6150694;23;20088;-77
2022/09/28 10:59:29;;;;;;;12.15;4.88;;;;;;;25.11;48.69;100738.19;6150946;23;20383;-76
2022/09/28 11:02:18;;;;;;;11.25;4.60;;;;;;;25.47;48.30;100718.91;6149582;23;20048;-75
2022/09/28 11:04:51;;;;;;;7.80;4.05;;;;;;;25.73;47.75;100712.47;6141351;23;20100;-76
2022/09/28 11:07:23;;;;;;;7.47;3.13;;;;;;;25.93;46.76;100713.28;6150766;23;20349;-76
2022/09/28 11:09:52;;;;;;;7.90;2.80;;;;;;;26.41;45.97;100719.41;6152554;23;20036;-76
2022/09/28 11:12:32;;;;;;;5.45;2.10;;;;;;;27.08;44.70;100698.75;6151508;23;20488;-75
2022/09/28 11:15:02;;;;;;;8.77;2.40;;;;;;;27.37;43.56;100705.66;6151847;23;20028;-77
2022/09/28 11:17:31;;;;;;;5.82;1.95;;;;;;;27.45;43.14;100704.53;6149191;23;20104;-74
2022/09/28 11:20:23;;;;;;;8.07;3.70;;;;;;;27.53;42.80;100703.41;6152399;23;20101;-74
2022/09/28 11:23:17;;;;;;;9.65;1.90;;;;;;;27.68;42.58;100700.69;6150836;23;20053;-75
2022/09/28 11:25:56;;;;;;;6.40;1.85;;;;;;;27.80;42.13;100686.09;6149621;23;20025;-75
2022/09/28 11:28:28;;;;;;;9.85;2.65;;;;;;;27.94;41.21;100683.34;6174380;23;20029;-74
2022/09/28 11:30:56;;;;;;;4.50;2.00;;;;;;;27.94;41.05;100677.59;6148729;23;20025;-76
2022/09/28 11:33:31;;;;;;;13.38;2.40;;;;;;;28.06;41.19;100679.34;6152139;23;20047;-77
2022/09/28 11:36:11;;;;;;;5.13;1.65;;;;;;;27.99;40.87;100671.47;6153057;23;20022;-75
2022/09/28 11:39:16;;;;;;;4.90;1.75;;;;;;;27.82;41.53;100672.97;6152949;23;20044;-76
2022/09/28 11:41:56;;;;;;;10.18;2.10;;;;;;;27.55;41.27;100669.41;6119404;23;20040;-75
2022/09/28 11:44:35;;;;;;;5.35;1.60;;;;;;;27.44;41.12;100662.72;6153530;23;20021;-76
2022/09/28 11:47:39;;;;;;;3.67;1.53;;;;;;;27.26;41.36;100653.13;6154137;23;20353;-76
2022/09/28 11:50:18;;;;;;;5.53;1.75;;;;;;;26.92;41.07;100615.81;6155038;23;20304;-76
2022/09/28 11:53:12;;;;;;;5.18;1.52;;;;;;;27.06;40.99;100650.38;6154887;23;20024;-76
2022/09/28 11:56:25;;;;;;;6.28;1.75;;;;;;;26.64;41.59;100660.06;6154892;23;20032;-76
2022/09/28 11:58:57;;;;;;;4.18;1.92;;;;;;;26.93;41.17;100663.31;6093176;23;20026;-75
2022/09/28 12:01:48;;;;;;;4.40;1.80;;;;;;;27.75;40.05;100657.72;6068925;23;20022;-76